Terminal Aerodrome Forecast
Issued by NWS

Home | Current Version | Previous Version | Graphics & Text | Print | Product List | Glossary On
Versions: 1 2 3 4 5 6 7 8 9 10 11 12 13 14 15
606
FTUS43 KICT 221135 AAD
TAFSLN
TAF AMD
KSLN 221135Z 2212/2312 18011KT P6SM FEW250
     FM221600 18018G25KT P6SM FEW250
     FM230100 16010KT P6SM VCTS SCT070CB BKN250
     FM230300 23008KT P6SM VCTS SCT070CB BKN200
     FM230400 05012KT P6SM VCSH BKN100
     FM230600 01012KT P6SM SCT025 BKN035=

USA.gov is the U.S. government's official web portal to all federal, state and local government web resources and services.